createdAt,value
2019-04-14T00:00:16.930Z,71.5
2019-04-14T00:01:17.324Z,71.8
2019-04-14T00:02:16.583Z,72.1
2019-04-14T00:03:17.362Z,72.2
2019-04-14T00:04:16.630Z,72.0
2019-04-14T00:05:17.113Z,71.8
2019-04-14T00:06:16.370Z,71.4
2019-04-14T00:07:16.704Z,71.6
2019-04-14T00:08:17.833Z,71.7
2019-04-14T00:09:18.413Z,71.8
2019-04-14T00:10:16.701Z,71.0
2019-04-14T00:11:17.005Z,71.3
2019-04-14T00:12:16.629Z,71.9
2019-04-14T00:13:17.572Z,71.8
2019-04-14T00:14:16.841Z,72.2
2019-04-14T00:15:30.827Z,72.2
2019-04-14T00:16:18.524Z,72.2
2019-04-14T00:17:17.353Z,72.6
2019-04-14T00:18:16.619Z,72.7
2019-04-14T00:19:17.442Z,72.2
2019-04-14T00:20:16.718Z,72.1
2019-04-14T00:21:17.362Z,72.5
2019-04-14T00:22:16.619Z,72.2
2019-04-14T00:23:17.310Z,71.2
2019-04-14T00:24:16.591Z,70.3
2019-04-14T00:25:17.511Z,70.7
2019-04-14T00:26:16.782Z,71.7
2019-04-14T00:27:17.275Z,71.3
2019-04-14T00:28:16.536Z,71.5
2019-04-14T00:29:17.445Z,71.2
2019-04-14T00:30:16.729Z,71.5
2019-04-14T00:31:17.422Z,71.5
2019-04-14T00:32:16.689Z,71.7
2019-04-14T00:33:17.088Z,72.1
2019-04-14T00:34:16.363Z,72.0
2019-04-14T00:35:16.838Z,72.0
2019-04-14T00:36:17.661Z,73.2
2019-04-14T00:37:16.930Z,73.2
2019-04-14T00:38:17.614Z,72.8
2019-04-14T00:39:16.887Z,72.7
2019-04-14T00:40:17.358Z,72.7
2019-04-14T00:41:18.088Z,72.1
2019-04-14T00:42:17.085Z,71.8
2019-04-14T00:43:16.346Z,72.6
2019-04-14T00:44:16.857Z,72.8
2019-04-14T00:45:30.478Z,73.1
2019-04-14T00:46:17.164Z,73.2
2019-04-14T00:47:16.423Z,72.2
2019-04-14T00:48:20.889Z,72.8
2019-04-14T00:49:16.279Z,72.7
2019-04-14T00:50:16.892Z,72.7
2019-04-14T00:51:17.807Z,72.3
2019-04-14T00:52:17.135Z,71.8
2019-04-14T00:53:16.446Z,71.8
2019-04-14T00:54:17.605Z,71.9
2019-04-14T00:55:16.869Z,72.1
2019-04-14T00:56:17.317Z,72.3
2019-04-14T00:57:16.587Z,72.6
2019-04-14T00:58:17.185Z,73.4
2019-04-14T00:59:16.448Z,73.5
2019-04-14T01:00:20.151Z,72.9
2019-04-14T01:01:17.665Z,72.8
2019-04-14T01:02:16.941Z,72.5
2019-04-14T01:03:17.841Z,72.5
2019-04-14T01:04:17.109Z,72.5
2019-04-14T01:05:17.513Z,72.4
2019-04-14T01:06:16.777Z,73.3
2019-04-14T01:07:17.425Z,73.2
2019-04-14T01:08:16.707Z,73.2
2019-04-14T01:09:17.334Z,72.7
2019-04-14T01:10:17.111Z,72.7
2019-04-14T01:11:16.657Z,74.0
2019-04-14T01:12:17.164Z,73.7
2019-04-14T01:13:16.426Z,72.8
2019-04-14T01:14:17.050Z,72.8
2019-04-14T01:15:16.337Z,72.9
2019-04-14T01:16:23.111Z,72.7
2019-04-14T01:17:17.782Z,72.6
2019-04-14T01:18:17.039Z,73.2
2019-04-14T01:19:16.314Z,72.9
2019-04-14T01:20:16.816Z,72.8
2019-04-14T01:21:17.502Z,72.8
2019-04-14T01:22:16.778Z,72.8
2019-04-14T01:23:17.289Z,72.8
2019-04-14T01:24:16.570Z,73.1
2019-04-14T01:25:17.238Z,73.0
2019-04-14T01:26:16.512Z,72.7
2019-04-14T01:27:16.879Z,73.1
2019-04-14T01:28:18.025Z,73.2
2019-04-14T01:29:16.682Z,73.3
2019-04-14T01:30:17.723Z,73.3
2019-04-14T01:31:17.002Z,73.2
2019-04-14T01:32:17.562Z,73.0
2019-04-14T01:33:16.889Z,73.1
2019-04-14T01:34:17.416Z,73.2
2019-04-14T01:35:16.696Z,73.2
2019-04-14T01:36:17.126Z,72.8
2019-04-14T01:37:16.391Z,72.8
2019-04-14T01:38:17.037Z,72.3
2019-04-14T01:39:17.684Z,72.4
2019-04-14T01:40:16.968Z,72.8
2019-04-14T01:41:17.221Z,73.2
2019-04-14T01:42:16.490Z,73.8
2019-04-14T01:43:16.838Z,73.3
2019-04-14T01:44:17.859Z,72.8
2019-04-14T01:45:17.156Z,72.7
2019-04-14T01:46:27.769Z,72.2
2019-04-14T01:47:16.694Z,72.2
2019-04-14T01:48:17.234Z,72.2
2019-04-14T01:49:16.496Z,72.4
2019-04-14T01:50:16.984Z,72.3
2019-04-14T01:51:17.863Z,72.7
2019-04-14T01:52:17.133Z,72.2
2019-04-14T01:53:16.411Z,72.0
2019-04-14T01:54:17.201Z,71.8
2019-04-14T01:55:17.845Z,71.8
2019-04-14T01:56:17.106Z,71.5
2019-04-14T01:57:17.653Z,72.0
2019-04-14T01:58:16.937Z,71.8
2019-04-14T01:59:17.400Z,72.1
2019-04-14T02:00:16.684Z,71.9
2019-04-14T02:01:17.164Z,71.8
2019-04-14T02:02:16.485Z,71.8
2019-04-14T02:03:17.170Z,71.2
2019-04-14T02:04:16.432Z,71.3
2019-04-14T02:05:16.946Z,71.3
2019-04-14T02:06:18.081Z,71.6
2019-04-14T02:07:16.738Z,71.5
2019-04-14T02:08:17.845Z,71.4
2019-04-14T02:09:17.111Z,71.4
2019-04-14T02:10:17.358Z,71.2
2019-04-14T02:11:16.454Z,71.3
2019-04-14T02:12:17.105Z,71.0
2019-04-14T02:13:16.371Z,71.2
2019-04-14T02:14:16.972Z,71.2
2019-04-14T02:15:18.025Z,71.7
2019-04-14T02:16:32.674Z,71.3
2019-04-14T02:17:17.899Z,71.8
2019-04-14T02:18:18.642Z,71.7
2019-04-14T02:19:17.807Z,71.7
2019-04-14T02:20:17.097Z,71.8
2019-04-14T02:21:17.352Z,71.3
2019-04-14T02:22:16.624Z,71.5
2019-04-14T02:23:17.204Z,71.2
2019-04-14T02:24:17.948Z,71.0
2019-04-14T02:25:17.209Z,71.2
2019-04-14T02:26:17.729Z,71.3
2019-04-14T02:27:16.994Z,71.3
2019-04-14T02:28:17.637Z,71.0
2019-04-14T02:29:16.994Z,71.5
2019-04-14T02:30:28.314Z,71.4
2019-04-14T02:31:52.411Z,71.4
2019-04-14T02:32:56.647Z,71.4
2019-04-14T02:33:50.033Z,71.5
2019-04-14T02:34:54.789Z,71.7
2019-04-14T02:35:54.803Z,71.6
2019-04-14T02:36:56.143Z,71.5
2019-04-14T02:37:54.250Z,71.7
2019-04-14T02:38:54.652Z,71.8
2019-04-14T02:39:53.357Z,71.4
2019-04-14T02:40:52.921Z,71.5
2019-04-14T02:42:53.834Z,71.7
2019-04-14T02:43:56.278Z,71.8
2019-04-14T02:44:50.965Z,71.7
2019-04-14T02:45:56.846Z,71.8
2019-04-14T02:46:52.868Z,71.8
2019-04-14T02:49:10.987Z,72.2
2019-04-14T02:49:55.892Z,71.8
2019-04-14T02:50:55.019Z,71.6
2019-04-14T02:51:47.921Z,71.9
2019-04-14T02:52:51.406Z,71.8
2019-04-14T02:53:57.321Z,72.0
2019-04-14T02:55:57.212Z,71.7
2019-04-14T02:56:51.935Z,71.6
2019-04-14T02:57:51.782Z,71.9
2019-04-14T02:58:58.143Z,71.9
2019-04-14T03:00:57.968Z,71.6
2019-04-14T03:02:03.254Z,71.6
2019-04-14T03:02:46.625Z,71.8
2019-04-14T03:03:48.648Z,71.8
2019-04-14T03:04:56.037Z,72.1
2019-04-14T03:05:57.384Z,72.1
2019-04-14T03:06:53.919Z,71.8
2019-04-14T03:07:51.293Z,71.9
2019-04-14T03:09:46.482Z,72.0
2019-04-14T03:10:53.353Z,72.2
2019-04-14T03:11:50.994Z,72.2
2019-04-14T03:12:57.606Z,71.6
2019-04-14T03:14:53.299Z,71.4
2019-04-14T03:15:54.953Z,71.7
2019-04-14T03:17:05.300Z,71.5
2019-04-14T03:17:59.925Z,71.8
2019-04-14T03:18:49.837Z,71.9
2019-04-14T03:20:04.655Z,71.8
2019-04-14T03:20:54.280Z,71.5
2019-04-14T03:21:48.230Z,71.7
2019-04-14T03:24:36.973Z,71.8
2019-04-14T03:25:48.876Z,72.0
2019-04-14T03:27:54.321Z,72.0
2019-04-14T03:28:43.886Z,71.9
2019-04-14T03:29:58.058Z,71.6
2019-04-14T03:31:08.084Z,72.0
2019-04-14T03:32:10.147Z,71.8
2019-04-14T03:34:12.585Z,72.0
2019-04-14T03:35:03.158Z,72.2
2019-04-14T03:36:16.181Z,72.1
2019-04-14T03:37:28.750Z,72.0
2019-04-14T03:38:12.506Z,72.2
2019-04-14T03:38:58.331Z,71.8
2019-04-14T03:39:51.021Z,72.0
2019-04-14T03:40:58.241Z,71.9
2019-04-14T03:41:52.487Z,72.0
2019-04-14T03:42:53.641Z,72.4
2019-04-14T03:43:45.830Z,72.9
2019-04-14T03:44:55.975Z,72.7
2019-04-14T03:45:58.722Z,72.3
2019-04-14T03:48:16.663Z,72.7
2019-04-14T03:48:57.767Z,72.5
2019-04-14T03:49:52.290Z,72.7
2019-04-14T03:50:51.893Z,72.5
2019-04-14T03:51:57.058Z,73.3
2019-04-14T03:52:55.504Z,73.8
2019-04-14T03:53:51.777Z,74.2
2019-04-14T03:54:43.915Z,73.9
2019-04-14T03:55:36.950Z,74.2
2019-04-14T03:56:21.003Z,73.5
2019-04-14T03:57:17.286Z,73.7
2019-04-14T03:58:16.568Z,74.2
2019-04-14T03:59:17.706Z,74.0
2019-04-14T04:00:18.185Z,74.2
2019-04-14T04:01:17.350Z,74.3
2019-04-14T04:02:16.613Z,74.2
2019-04-14T04:03:17.464Z,74.2
2019-04-14T04:04:16.731Z,74.3
2019-04-14T04:05:17.483Z,74.6
2019-04-14T04:06:16.754Z,74.7
2019-04-14T04:07:17.205Z,74.8
2019-04-14T04:08:16.478Z,74.9
2019-04-14T04:09:17.204Z,74.8
2019-04-14T04:10:16.485Z,75.1
2019-04-14T04:11:17.301Z,74.9
2019-04-14T04:12:16.556Z,74.8
2019-04-14T04:13:17.297Z,75.1
2019-04-14T04:14:16.554Z,74.9
2019-04-14T04:15:17.170Z,75.0
2019-04-14T04:16:16.442Z,75.2
2019-04-14T04:17:16.931Z,75.2
2019-04-14T04:18:17.858Z,74.9
2019-04-14T04:19:19.800Z,75.5
2019-04-14T04:20:17.500Z,74.8
2019-04-14T04:21:18.475Z,75.2
2019-04-14T04:22:17.300Z,75.2
2019-04-14T04:23:16.557Z,75.1
2019-04-14T04:24:17.140Z,75.0
2019-04-14T04:25:16.414Z,75.3
2019-04-14T04:26:17.027Z,75.6
2019-04-14T04:27:16.292Z,75.7
2019-04-14T04:28:16.871Z,75.4
2019-04-14T04:29:18.038Z,75.5
2019-04-14T04:30:16.632Z,75.7
2019-04-14T04:31:16.369Z,76.0
2019-04-14T04:32:16.644Z,75.9
2019-04-14T04:33:17.753Z,76.1
2019-04-14T04:34:17.010Z,76.2
2019-04-14T04:35:17.543Z,76.0
2019-04-14T04:36:16.857Z,76.2
2019-04-14T04:37:17.245Z,76.7
2019-04-14T04:38:16.501Z,76.7
2019-04-14T04:39:17.186Z,76.6
2019-04-14T04:40:16.458Z,76.7
2019-04-14T04:41:16.951Z,76.7
2019-04-14T04:42:17.773Z,76.7
2019-04-14T04:43:17.036Z,76.8
2019-04-14T04:44:16.303Z,77.0
2019-04-14T04:45:17.189Z,76.9
2019-04-14T04:46:17.739Z,76.9
2019-04-14T04:47:17.001Z,76.9
2019-04-14T04:48:17.502Z,76.8
2019-04-14T04:49:24.699Z,76.9
2019-04-14T04:50:17.230Z,77.1
2019-04-14T04:51:16.353Z,77.2
2019-04-14T04:52:17.415Z,77.2
2019-04-14T04:53:17.970Z,77.3
2019-04-14T04:54:16.966Z,77.4
2019-04-14T04:55:17.855Z,77.6
2019-04-14T04:56:17.122Z,77.3
2019-04-14T04:57:16.397Z,77.5
2019-04-14T04:58:17.434Z,77.5
2019-04-14T04:59:17.179Z,77.4
2019-04-14T05:00:17.927Z,77.7
2019-04-14T05:01:16.834Z,77.6
2019-04-14T05:02:17.777Z,77.7
2019-04-14T05:03:17.051Z,77.7
2019-04-14T05:04:17.721Z,77.8
2019-04-14T05:05:16.993Z,77.2
2019-04-14T05:06:21.697Z,77.2
2019-04-14T05:07:16.817Z,77.5
2019-04-14T05:08:17.494Z,77.3
2019-04-14T05:09:16.762Z,77.2
2019-04-14T05:10:17.562Z,77.2
2019-04-14T05:11:17.095Z,77.2
2019-04-14T05:12:17.530Z,77.2
2019-04-14T05:13:16.797Z,77.2
2019-04-14T05:14:17.392Z,77.2
2019-04-14T05:15:16.690Z,77.3
2019-04-14T05:16:17.183Z,77.2
2019-04-14T05:17:17.091Z,76.8
2019-04-14T05:18:16.360Z,76.9
2019-04-14T05:19:31.645Z,77.0
2019-04-14T05:20:18.178Z,76.9
2019-04-14T05:21:17.161Z,76.8
2019-04-14T05:22:19.598Z,76.8
2019-04-14T05:23:17.103Z,77.2
2019-04-14T05:24:16.366Z,77.2
2019-04-14T05:25:16.866Z,76.8
2019-04-14T05:26:17.949Z,76.7
2019-04-14T05:27:17.216Z,76.2
2019-04-14T05:28:17.917Z,76.3
2019-04-14T05:29:17.181Z,76.3
2019-04-14T05:30:17.652Z,76.2
2019-04-14T05:31:16.583Z,76.2
2019-04-14T05:32:17.509Z,76.2
2019-04-14T05:33:16.783Z,76.0
2019-04-14T05:34:17.402Z,75.8
2019-04-14T05:35:16.679Z,75.8
2019-04-14T05:36:17.218Z,75.8
2019-04-14T05:37:16.514Z,75.6
2019-04-14T05:38:17.073Z,75.6
2019-04-14T05:39:16.349Z,75.8
2019-04-14T05:40:16.895Z,75.4
2019-04-14T05:41:18.036Z,75.4
2019-04-14T05:42:24.270Z,75.1
2019-04-14T05:43:38.310Z,74.9
2019-04-14T05:44:16.932Z,75.2
2019-04-14T05:45:17.796Z,75.2
2019-04-14T05:46:17.053Z,75.4
2019-04-14T05:47:17.626Z,75.3
2019-04-14T05:48:18.276Z,75.3
2019-04-14T05:49:35.195Z,75.2
2019-04-14T05:50:16.471Z,75.4
2019-04-14T05:51:21.621Z,75.4
2019-04-14T05:52:16.524Z,75.2
2019-04-14T05:53:17.614Z,75.2
2019-04-14T05:54:16.884Z,75.3
2019-04-14T05:55:17.757Z,75.4
2019-04-14T05:56:17.015Z,74.9
2019-04-14T05:57:16.267Z,75.3
2019-04-14T05:58:16.550Z,75.2
2019-04-14T05:59:17.782Z,75.1
2019-04-14T06:00:17.075Z,75.0
2019-04-14T06:01:18.237Z,74.8
2019-04-14T06:02:16.509Z,74.9
2019-04-14T06:03:16.871Z,75.0
2019-04-14T06:04:17.935Z,74.8
2019-04-14T06:05:17.208Z,74.7
2019-04-14T06:06:16.492Z,74.9
2019-04-14T06:07:16.785Z,74.7
2019-04-14T06:08:17.053Z,74.8
2019-04-14T06:09:16.317Z,74.8
2019-04-14T06:10:16.595Z,74.5
2019-04-14T06:11:16.620Z,74.1
2019-04-14T06:12:16.881Z,74.2
2019-04-14T06:13:17.141Z,74.0
2019-04-14T06:14:16.406Z,73.8
2019-04-14T06:15:16.691Z,73.9
2019-04-14T06:16:16.952Z,74.0
2019-04-14T06:17:17.217Z,73.6
2019-04-14T06:18:16.482Z,73.3
2019-04-14T06:19:16.791Z,73.5
2019-04-14T06:20:17.107Z,73.5
2019-04-14T06:21:17.158Z,73.3
2019-04-14T06:22:16.417Z,73.4
2019-04-14T06:23:16.685Z,73.8
2019-04-14T06:24:16.950Z,73.2
2019-04-14T06:25:17.221Z,72.8
2019-04-14T06:26:16.497Z,73.0
2019-04-14T06:27:16.759Z,72.6
2019-04-14T06:28:17.027Z,72.8
2019-04-14T06:29:16.297Z,72.6
2019-04-14T06:30:16.572Z,72.2
2019-04-14T06:31:16.628Z,71.9
2019-04-14T06:32:16.906Z,72.1
2019-04-14T06:33:17.181Z,71.7
2019-04-14T06:34:16.448Z,71.8
2019-04-14T06:35:16.711Z,71.3
2019-04-14T06:36:16.966Z,71.6
2019-04-14T06:37:17.280Z,71.7
2019-04-14T06:38:16.552Z,70.8
2019-04-14T06:39:16.831Z,70.3
2019-04-14T06:40:17.232Z,70.0
2019-04-14T06:41:17.160Z,69.7
2019-04-14T06:42:16.425Z,69.7
2019-04-14T06:43:16.691Z,69.7
2019-04-14T06:44:16.961Z,68.9
2019-04-14T06:45:17.232Z,69.0
2019-04-14T06:46:16.491Z,69.2
2019-04-14T06:47:16.749Z,69.2
2019-04-14T06:48:17.014Z,69.0
2019-04-14T06:49:16.292Z,68.4
2019-04-14T06:50:16.566Z,68.2
2019-04-14T06:51:16.603Z,68.5
2019-04-14T06:52:16.872Z,68.7
2019-04-14T06:53:17.149Z,68.3
2019-04-14T06:54:16.433Z,68.0
2019-04-14T06:55:16.708Z,67.9
2019-04-14T06:56:16.974Z,68.0
2019-04-14T06:57:17.231Z,67.8
2019-04-14T06:58:16.492Z,67.4
2019-04-14T06:59:16.746Z,67.8
2019-04-14T07:00:17.048Z,67.5
2019-04-14T07:01:17.061Z,67.6
2019-04-14T07:02:16.338Z,67.5
2019-04-14T07:03:16.594Z,66.3
2019-04-14T07:04:16.864Z,65.8
2019-04-14T07:05:17.141Z,65.8
2019-04-14T07:06:16.393Z,65.8
2019-04-14T07:07:16.650Z,65.8
2019-04-14T07:08:16.912Z,65.6
2019-04-14T07:09:17.182Z,65.8
2019-04-14T07:10:16.452Z,65.3
2019-04-14T07:11:16.488Z,64.8
2019-04-14T07:12:17.078Z,64.4
2019-04-14T07:13:19.753Z,64.1
2019-04-14T07:14:17.176Z,64.2
2019-04-14T07:15:16.439Z,64.3
2019-04-14T07:16:16.713Z,64.2
2019-04-14T07:17:16.977Z,63.4
2019-04-14T07:18:17.249Z,63.0
2019-04-14T07:19:16.511Z,62.8
2019-04-14T07:20:16.808Z,63.0
2019-04-14T07:21:16.831Z,62.5
2019-04-14T07:22:17.104Z,62.0
2019-04-14T07:23:16.379Z,63.0
2019-04-14T07:24:16.644Z,62.7
2019-04-14T07:25:16.911Z,62.2
2019-04-14T07:26:17.180Z,61.8
2019-04-14T07:27:16.440Z,60.5
2019-04-14T07:28:16.704Z,60.4
2019-04-14T07:29:17.005Z,60.0
2019-04-14T07:30:16.293Z,59.4
2019-04-14T07:31:16.319Z,60.0
2019-04-14T07:32:16.580Z,59.8
2019-04-14T07:33:16.856Z,59.8
2019-04-14T07:34:17.121Z,60.2
2019-04-14T07:35:16.396Z,60.8
2019-04-14T07:36:16.654Z,61.1
2019-04-14T07:37:19.305Z,61.5
2019-04-14T07:38:16.633Z,60.5
2019-04-14T07:39:16.897Z,59.9
2019-04-14T07:40:17.177Z,59.0
2019-04-14T07:41:17.214Z,58.9
2019-04-14T07:42:16.481Z,59.0
2019-04-14T07:43:16.757Z,58.3
2019-04-14T07:44:17.063Z,58.1
2019-04-14T07:45:16.349Z,56.9
2019-04-14T07:46:16.642Z,56.2
2019-04-14T07:47:16.912Z,55.9
2019-04-14T07:48:17.177Z,55.7
2019-04-14T07:49:16.438Z,55.7
2019-04-14T07:50:16.710Z,55.3
2019-04-14T07:51:16.776Z,54.9
2019-04-14T07:52:17.074Z,54.3
2019-04-14T07:53:16.331Z,54.4
2019-04-14T07:54:16.602Z,54.5
2019-04-14T07:55:16.880Z,54.0
2019-04-14T07:56:17.157Z,54.7
2019-04-14T07:57:16.420Z,55.0
2019-04-14T07:58:16.701Z,56.2
2019-04-14T07:59:16.965Z,55.7
2019-04-14T08:00:17.242Z,56.0
2019-04-14T08:01:16.290Z,56.2
2019-04-14T08:02:16.557Z,56.8
2019-04-14T08:03:16.824Z,55.2
2019-04-14T08:04:17.085Z,55.5
2019-04-14T08:05:16.362Z,56.4
2019-04-14T08:06:16.634Z,56.5
2019-04-14T08:07:16.886Z,56.0
2019-04-14T08:08:17.155Z,57.1
2019-04-14T08:09:16.424Z,55.5
2019-04-14T08:10:16.713Z,55.3
2019-04-14T08:11:16.732Z,55.8
2019-04-14T08:12:16.999Z,54.6
2019-04-14T08:13:16.269Z,55.0
2019-04-14T08:14:16.534Z,54.2
2019-04-14T08:15:16.803Z,54.3
2019-04-14T08:16:17.080Z,53.2
2019-04-14T08:17:16.342Z,53.6
2019-04-14T08:18:16.603Z,54.0
2019-04-14T08:19:16.858Z,52.6
2019-04-14T08:20:27.856Z,52.4
2019-04-14T08:21:17.191Z,52.0
2019-04-14T08:22:16.459Z,52.8
2019-04-14T08:23:16.725Z,52.2
2019-04-14T08:24:16.993Z,52.2
2019-04-14T08:25:16.277Z,51.6
2019-04-14T08:26:16.548Z,51.0
2019-04-14T08:27:16.811Z,50.5
2019-04-14T08:28:17.083Z,51.3
2019-04-14T08:29:16.354Z,51.6
2019-04-14T08:30:16.625Z,50.2
2019-04-14T08:31:16.685Z,50.4
2019-04-14T08:32:16.950Z,51.2
2019-04-14T08:33:17.210Z,50.4
2019-04-14T08:34:16.486Z,49.7
2019-04-14T08:35:16.766Z,51.5
2019-04-14T08:36:17.023Z,50.8
2019-04-14T08:37:16.347Z,51.2
2019-04-14T08:38:16.607Z,50.0
2019-04-14T08:39:16.880Z,49.8
2019-04-14T08:40:17.147Z,51.4
2019-04-14T08:41:17.192Z,49.9
2019-04-14T08:42:16.465Z,50.0
2019-04-14T08:43:16.731Z,50.5
2019-04-14T08:44:17.002Z,50.9
2019-04-14T08:45:16.277Z,50.8
2019-04-14T08:46:16.606Z,51.0
2019-04-14T08:47:16.883Z,49.2
2019-04-14T08:48:17.147Z,48.9
2019-04-14T08:49:16.425Z,49.8
2019-04-14T08:50:16.689Z,51.0
2019-04-14T08:51:16.772Z,51.8
2019-04-14T08:52:17.039Z,51.2
2019-04-14T08:53:16.318Z,50.1
2019-04-14T08:54:16.585Z,49.2
2019-04-14T08:55:16.858Z,49.5
2019-04-14T08:56:17.116Z,49.5
2019-04-14T08:57:16.383Z,49.8
2019-04-14T08:58:16.655Z,50.4
2019-04-14T08:59:16.924Z,50.0
2019-04-14T09:00:17.188Z,49.5
2019-04-14T09:01:17.240Z,49.5
2019-04-14T09:02:16.503Z,49.7
2019-04-14T09:03:16.769Z,48.4
2019-04-14T09:04:17.027Z,47.9
2019-04-14T09:05:16.294Z,48.4
2019-04-14T09:06:16.558Z,49.0
2019-04-14T09:07:16.821Z,49.0
2019-04-14T09:08:17.089Z,48.5
2019-04-14T09:09:16.366Z,48.7
2019-04-14T09:10:16.653Z,49.4
2019-04-14T09:11:16.686Z,49.8
2019-04-14T09:12:16.943Z,50.2
2019-04-14T09:13:17.203Z,51.7
2019-04-14T09:14:16.463Z,52.8
2019-04-14T09:15:16.739Z,53.2
2019-04-14T09:16:17.002Z,51.8
2019-04-14T09:17:16.271Z,52.6
2019-04-14T09:18:16.545Z,50.8
2019-04-14T09:19:16.810Z,49.6
2019-04-14T09:20:17.082Z,50.0
2019-04-14T09:21:17.138Z,50.6
2019-04-14T09:22:16.407Z,51.0
2019-04-14T09:23:16.668Z,50.8
2019-04-14T09:24:16.937Z,50.8
2019-04-14T09:25:17.207Z,50.2
2019-04-14T09:26:16.471Z,50.2
2019-04-14T09:27:16.727Z,50.1
2019-04-14T09:28:17.012Z,50.6
2019-04-14T09:29:16.315Z,51.0
2019-04-14T09:30:16.592Z,51.8
2019-04-14T09:31:16.654Z,52.8
2019-04-14T09:32:16.915Z,52.9
2019-04-14T09:33:17.192Z,52.9
2019-04-14T09:34:16.456Z,53.0
2019-04-14T09:35:16.723Z,53.2
2019-04-14T09:36:16.991Z,52.4
2019-04-14T09:37:17.261Z,53.0
2019-04-14T09:38:16.536Z,52.1
2019-04-14T09:39:16.809Z,51.9
2019-04-14T09:40:17.117Z,52.7
2019-04-14T09:41:17.134Z,52.9
2019-04-14T09:42:16.399Z,52.8
2019-04-14T09:43:16.664Z,52.8
2019-04-14T09:44:16.932Z,53.0
2019-04-14T09:45:17.220Z,53.0
2019-04-14T09:46:16.475Z,52.7
2019-04-14T09:47:16.737Z,53.1
2019-04-14T09:48:17.004Z,53.2
2019-04-14T09:49:16.274Z,53.5
2019-04-14T09:50:16.565Z,54.6
2019-04-14T09:51:16.626Z,53.9
2019-04-14T09:52:16.887Z,52.8
2019-04-14T09:53:17.150Z,53.0
2019-04-14T09:54:16.413Z,53.2
2019-04-14T09:55:16.687Z,54.7
2019-04-14T09:56:16.981Z,56.9
2019-04-14T09:57:16.304Z,57.1
2019-04-14T09:58:16.571Z,56.8
2019-04-14T09:59:16.907Z,56.7
2019-04-14T10:00:17.243Z,56.5
2019-04-14T10:01:16.298Z,56.2
2019-04-14T10:02:16.574Z,56.1
2019-04-14T10:03:16.841Z,54.8
2019-04-14T10:04:17.101Z,55.0
2019-04-14T10:05:16.379Z,55.5
2019-04-14T10:06:16.640Z,55.4
2019-04-14T10:07:16.924Z,55.2
2019-04-14T10:08:17.314Z,54.8
2019-04-14T10:09:16.705Z,53.5
2019-04-14T10:10:17.086Z,54.0
2019-04-14T10:11:17.096Z,55.0
2019-04-14T10:12:16.357Z,54.0
2019-04-14T10:13:16.624Z,53.3
2019-04-14T10:14:16.881Z,53.8
2019-04-14T10:15:17.138Z,53.8
2019-04-14T10:16:16.399Z,52.9
2019-04-14T10:17:16.708Z,52.0
2019-04-14T10:18:16.987Z,52.9
2019-04-14T10:19:17.250Z,53.5
2019-04-14T10:20:16.517Z,52.5
2019-04-14T10:21:17.965Z,53.1
2019-04-14T10:22:16.409Z,54.2
2019-04-14T10:23:16.665Z,52.0
2019-04-14T10:24:16.928Z,51.2
2019-04-14T10:25:17.212Z,51.4
2019-04-14T10:26:16.493Z,52.5
2019-04-14T10:27:16.756Z,54.1
2019-04-14T10:28:17.014Z,54.2
2019-04-14T10:29:16.276Z,55.7
2019-04-14T10:30:16.563Z,54.9
2019-04-14T10:31:16.620Z,55.1
2019-04-14T10:32:16.892Z,55.7
2019-04-14T10:33:17.160Z,54.7
2019-04-14T10:34:16.424Z,53.9
2019-04-14T10:35:16.705Z,53.2
2019-04-14T10:36:16.973Z,51.3
2019-04-14T10:37:17.230Z,52.4
2019-04-14T10:38:16.493Z,52.2
2019-04-14T10:39:16.756Z,53.6
2019-04-14T10:40:17.022Z,53.2
2019-04-14T10:41:17.068Z,53.0
2019-04-14T10:42:16.329Z,53.7
2019-04-14T10:43:16.623Z,53.8
2019-04-14T10:44:16.899Z,53.8
2019-04-14T10:45:18.652Z,53.5
2019-04-14T10:46:16.951Z,53.5
2019-04-14T10:47:17.214Z,53.3
2019-04-14T10:48:16.501Z,52.9
2019-04-14T10:49:16.798Z,54.3
2019-04-14T10:50:30.903Z,55.1
2019-04-14T10:51:30.124Z,52.7
2019-04-14T10:52:17.081Z,52.4
2019-04-14T10:53:16.352Z,52.6
2019-04-14T10:54:16.621Z,52.3
2019-04-14T10:55:16.908Z,51.5
2019-04-14T10:56:17.188Z,51.8
2019-04-14T10:57:16.463Z,53.3
2019-04-14T10:58:16.728Z,53.1
2019-04-14T10:59:16.998Z,53.2
2019-04-14T11:00:16.269Z,53.0
2019-04-14T11:01:16.323Z,53.0
2019-04-14T11:02:16.584Z,52.1
2019-04-14T11:03:16.847Z,52.5
2019-04-14T11:04:17.107Z,51.5
2019-04-14T11:05:16.380Z,52.0
2019-04-14T11:06:16.654Z,52.0
2019-04-14T11:07:16.916Z,52.5
2019-04-14T11:08:17.183Z,53.2
2019-04-14T11:09:16.449Z,54.0
2019-04-14T11:10:16.721Z,55.0
2019-04-14T11:11:16.777Z,52.3
2019-04-14T11:12:17.037Z,51.9
2019-04-14T11:13:16.296Z,50.9
2019-04-14T11:14:16.566Z,50.9
2019-04-14T11:15:16.896Z,50.1
2019-04-14T11:16:17.168Z,50.5
2019-04-14T11:17:16.435Z,50.6
2019-04-14T11:18:16.694Z,52.8
2019-04-14T11:19:16.953Z,52.3
2019-04-14T11:20:17.252Z,53.2
2019-04-14T11:21:16.276Z,53.8
2019-04-14T11:22:16.545Z,53.0
2019-04-14T11:23:16.805Z,51.7
2019-04-14T11:24:17.072Z,51.9
2019-04-14T11:25:16.339Z,52.6
2019-04-14T11:26:16.615Z,53.5
2019-04-14T11:27:16.883Z,52.0
2019-04-14T11:28:17.144Z,53.0
2019-04-14T11:29:16.416Z,53.8
2019-04-14T11:30:16.694Z,54.0
2019-04-14T11:31:16.742Z,53.5
2019-04-14T11:32:17.004Z,53.2
2019-04-14T11:33:16.279Z,54.2
2019-04-14T11:34:16.545Z,54.5
2019-04-14T11:35:16.964Z,53.6
2019-04-14T11:36:17.239Z,53.7
2019-04-14T11:37:16.509Z,54.9
2019-04-14T11:38:16.788Z,53.3
2019-04-14T11:39:17.064Z,54.1
2019-04-14T11:40:16.340Z,53.3
2019-04-14T11:41:16.389Z,53.5
2019-04-14T11:42:16.660Z,53.3
2019-04-14T11:43:16.938Z,53.6
2019-04-14T11:44:17.245Z,53.3
2019-04-14T11:45:16.602Z,54.2
2019-04-14T11:46:16.884Z,54.5
2019-04-14T11:47:17.146Z,53.0
2019-04-14T11:48:16.424Z,53.6
2019-04-14T11:49:16.867Z,54.5
2019-04-14T11:50:17.154Z,53.2
2019-04-14T11:51:16.365Z,53.9
2019-04-14T11:52:16.626Z,55.0
2019-04-14T11:53:16.893Z,54.8
2019-04-14T11:54:17.176Z,54.9
2019-04-14T11:55:16.442Z,55.8
2019-04-14T11:56:16.715Z,54.6
2019-04-14T11:57:16.990Z,55.2
2019-04-14T11:58:17.249Z,55.5
2019-04-14T11:59:16.512Z,55.9
2019-04-14T12:00:16.796Z,56.4
2019-04-14T12:01:16.847Z,55.3
2019-04-14T12:02:17.155Z,55.3
2019-04-14T12:03:16.429Z,55.8
2019-04-14T12:04:16.711Z,56.0
2019-04-14T12:05:16.992Z,56.4
2019-04-14T12:06:16.254Z,57.5
2019-04-14T12:07:16.512Z,55.9
2019-04-14T12:08:16.776Z,56.1
2019-04-14T12:09:17.051Z,57.0
2019-04-14T12:10:16.325Z,57.5
2019-04-14T12:11:16.356Z,57.6
2019-04-14T12:12:16.628Z,57.8
2019-04-14T12:13:16.895Z,57.3
2019-04-14T12:14:17.181Z,57.7
2019-04-14T12:15:16.941Z,56.4
2019-04-14T12:16:17.240Z,57.5
2019-04-14T12:17:16.505Z,57.5
2019-04-14T12:18:16.762Z,57.0
2019-04-14T12:19:17.024Z,56.0
2019-04-14T12:20:16.313Z,57.6
2019-04-14T12:21:16.357Z,57.2
2019-04-14T12:22:16.615Z,57.5
2019-04-14T12:23:16.884Z,57.1
2019-04-14T12:24:17.157Z,57.9
2019-04-14T12:25:16.416Z,56.5
2019-04-14T12:26:16.683Z,56.8
2019-04-14T12:27:16.943Z,56.8
2019-04-14T12:28:17.429Z,58.0
2019-04-14T12:29:16.927Z,57.6
2019-04-14T12:30:18.164Z,57.6
2019-04-14T12:31:17.573Z,57.5
2019-04-14T12:32:17.357Z,58.0
2019-04-14T12:33:16.621Z,57.2
2019-04-14T12:34:18.616Z,57.5
2019-04-14T12:35:16.911Z,57.6
2019-04-14T12:36:17.187Z,57.7
2019-04-14T12:37:16.458Z,57.8
2019-04-14T12:38:16.716Z,57.4
2019-04-14T12:39:16.984Z,57.3
2019-04-14T12:40:17.269Z,58.2
2019-04-14T12:41:17.381Z,58.0
2019-04-14T12:42:16.932Z,58.4
2019-04-14T12:43:17.192Z,58.2
2019-04-14T12:44:16.484Z,58.9
2019-04-14T12:45:16.763Z,59.2
2019-04-14T12:46:17.026Z,58.2
2019-04-14T12:47:16.296Z,58.5
2019-04-14T12:48:16.617Z,58.3
2019-04-14T12:49:16.882Z,58.2
2019-04-14T12:50:17.392Z,58.9
2019-04-14T12:51:17.213Z,58.8
2019-04-14T12:52:22.186Z,58.5
2019-04-14T12:53:16.494Z,58.2
2019-04-14T12:54:16.754Z,58.3
2019-04-14T12:55:17.026Z,58.3
2019-04-14T12:56:16.289Z,58.5
2019-04-14T12:57:16.554Z,58.7
2019-04-14T12:58:16.830Z,59.0
2019-04-14T12:59:17.107Z,58.8
2019-04-14T13:00:16.395Z,58.3
2019-04-14T13:01:16.867Z,58.4
2019-04-14T13:02:17.127Z,59.5
2019-04-14T13:03:16.399Z,58.4
2019-04-14T13:04:16.668Z,58.0
2019-04-14T13:05:16.964Z,58.2
2019-04-14T13:06:17.283Z,57.5
2019-04-14T13:07:16.549Z,58.0
2019-04-14T13:08:16.882Z,58.3
2019-04-14T13:09:17.169Z,59.4
2019-04-14T13:10:16.456Z,58.8
2019-04-14T13:11:16.507Z,59.1
2019-04-14T13:12:16.782Z,59.3
2019-04-14T13:13:17.053Z,59.5
2019-04-14T13:14:16.324Z,59.3
2019-04-14T13:15:16.589Z,59.0
2019-04-14T13:16:16.854Z,58.2
2019-04-14T13:17:17.123Z,58.3
2019-04-14T13:18:16.390Z,58.4
2019-04-14T13:19:16.653Z,57.5
2019-04-14T13:20:16.927Z,58.0
2019-04-14T13:21:16.955Z,57.7
2019-04-14T13:22:17.230Z,58.3
2019-04-14T13:23:16.489Z,58.2
2019-04-14T13:24:16.764Z,59.2
2019-04-14T13:25:17.027Z,59.5
2019-04-14T13:26:16.300Z,59.8
2019-04-14T13:27:16.569Z,60.3
2019-04-14T13:28:16.835Z,60.0
2019-04-14T13:29:17.095Z,60.3